Main page
METAR-TAF:

METAR-TAF

Airports :

Ulan Bator, Mongolia

Chinggis Khaan International Airport

latitude: 47-55N, longitude: 106-52E, elevation: 1306 m

Current weather observation

The report was made 34 minutes ago, at 16:00 UTC
Wind 4 kt from variable directions
Temperature 11°C
Humidity 94%
Pressure 1016 hPa
Visibility 10 km or more
Few clouds at a height of 3300 ft

METAR: ZMUB 221600Z VRB02MPS 9999 FEW033 11/10 Q1016 NOSIG RMK QFE654.7 89 NT

Time: 01:34 (16:34 UTC)

Forecast

The report was made 5 hours and 54 minutes ago, at 10:40 UTC
Forecast valid from 22 at 12 UTC to 23 at 18 UTC
Wind 4 kt from variable directions
Visibility 10 km or more
Few clouds at a height of 3000 ft, Cumulonimbus.
Scattered clouds at a height of 3300 ft

TAF: ZMUB 221040Z 2212/2318 VRB02MPS 9999 FEW030CB SCT033 TN09/2221Z TX25/2307Z

Weather observations and forecasts of more than 4000 airports (METAR and TAF reports).

The available stations are represented by yellow and red dots on the map.

Hover mouse over dot to see the name of the station.

Then click to see weather observations and forecasts.

To change the map : click on the green buttons with a black cross to zoom in, on the green button with a dash to zoom out, or on the green arrows for adjacent maps.


METAR-TAF: